createdAt,value
2023-03-13T00:00:28.024Z,85
2023-03-13T00:02:58.371Z,77
2023-03-13T00:05:28.638Z,81
2023-03-13T00:07:58.818Z,87
2023-03-13T00:10:29.476Z,77
2023-03-13T00:13:00.497Z,89
2023-03-13T00:15:31.125Z,92
2023-03-13T00:18:02.111Z,76
2023-03-13T00:20:32.853Z,83
2023-03-13T00:23:03.596Z,84
2023-03-13T00:25:33.995Z,88
2023-03-13T00:28:04.494Z,94
2023-03-13T00:30:34.919Z,96
2023-03-13T00:33:07.323Z,93
2023-03-13T00:35:37.088Z,106
2023-03-13T00:38:07.676Z,87
2023-03-13T00:40:38.329Z,97
2023-03-13T00:43:08.915Z,84
2023-03-13T00:45:39.844Z,83
2023-03-13T00:48:10.011Z,84
2023-03-13T00:50:41.159Z,83
2023-03-13T00:53:11.684Z,86
2023-03-13T00:55:42.692Z,91
2023-03-13T00:58:13.253Z,83
2023-03-13T01:00:42.466Z,77
2023-03-13T01:03:13.420Z,88
2023-03-13T01:05:42.404Z,90
2023-03-13T01:08:13.288Z,92
2023-03-13T01:10:44.055Z,89
2023-03-13T01:13:18.665Z,82
2023-03-13T01:15:50.575Z,76
2023-03-13T01:18:21.507Z,77
2023-03-13T01:20:52.354Z,80
2023-03-13T01:23:23.272Z,79
2023-03-13T01:25:54.533Z,78
2023-03-13T01:28:24.975Z,81
2023-03-13T01:30:55.738Z,76
2023-03-13T01:33:26.315Z,84
2023-03-13T01:35:55.237Z,83
2023-03-13T01:38:26.364Z,72
2023-03-13T01:40:56.841Z,78
2023-03-13T01:43:27.842Z,85
2023-03-13T01:45:58.343Z,87
2023-03-13T01:48:29.486Z,81
2023-03-13T01:50:59.838Z,79
2023-03-13T01:53:30.385Z,80
2023-03-13T01:56:00.975Z,76
2023-03-13T01:58:32.186Z,80
2023-03-13T02:01:02.795Z,89
2023-03-13T02:03:33.810Z,79
2023-03-13T02:06:04.636Z,76
2023-03-13T02:08:33.838Z,84
2023-03-13T02:11:04.472Z,76
2023-03-13T02:13:36.374Z,80
2023-03-13T02:16:06.865Z,80
2023-03-13T02:18:37.424Z,79
2023-03-13T02:21:08.294Z,76
2023-03-13T02:23:39.124Z,74
2023-03-13T02:26:09.525Z,72
2023-03-13T02:28:40.262Z,73
2023-03-13T02:31:11.028Z,75
2023-03-13T02:33:42.066Z,73
2023-03-13T02:36:13.033Z,73
2023-03-13T02:38:43.897Z,76
2023-03-13T02:41:14.644Z,70
2023-03-13T02:43:45.339Z,72
2023-03-13T02:46:16.149Z,68
2023-03-13T02:48:45.836Z,75
2023-03-13T02:51:16.626Z,72
2023-03-13T02:53:47.451Z,73
2023-03-13T02:56:18.327Z,72
2023-03-13T02:58:50.502Z,69
2023-03-13T03:01:21.057Z,68
2023-03-13T03:03:52.034Z,68
2023-03-13T03:06:22.516Z,72
2023-03-13T03:08:53.986Z,70
2023-03-13T03:11:25.090Z,68
2023-03-13T03:13:55.986Z,67
2023-03-13T03:16:27.083Z,69
2023-03-13T03:18:58.852Z,66
2023-03-13T03:21:29.642Z,69
2023-03-13T03:24:00.287Z,64
2023-03-13T03:26:31.233Z,64
2023-03-13T03:29:02.230Z,61
2023-03-13T03:31:33.178Z,60
2023-03-13T03:34:02.424Z,60
2023-03-13T03:36:33.068Z,59
2023-03-13T03:39:03.357Z,65
2023-03-13T03:41:34.250Z,60
2023-03-13T03:44:05.004Z,62
2023-03-13T03:46:35.577Z,64
2023-03-13T03:49:06.603Z,59
2023-03-13T03:51:37.597Z,56
2023-03-13T03:54:08.464Z,63
2023-03-13T03:56:39.041Z,56
2023-03-13T03:59:10.098Z,57
2023-03-13T04:01:40.915Z,56
2023-03-13T04:04:10.579Z,56
2023-03-13T04:06:41.529Z,55
2023-03-13T04:09:12.616Z,52
2023-03-13T04:11:43.800Z,60
2023-03-13T04:14:14.688Z,58
2023-03-13T04:16:45.771Z,56
2023-03-13T04:19:16.763Z,56
2023-03-13T04:21:47.449Z,55
2023-03-13T04:24:18.108Z,52
2023-03-13T04:26:50.226Z,48
2023-03-13T04:29:22.116Z,47
2023-03-13T04:31:52.720Z,52
2023-03-13T04:34:23.702Z,48
2023-03-13T04:36:54.468Z,48
2023-03-13T04:39:25.385Z,53
2023-03-13T04:41:54.408Z,55
2023-03-13T04:44:25.752Z,49
2023-03-13T04:46:56.549Z,54
2023-03-13T04:49:27.346Z,60
2023-03-13T04:51:58.333Z,55
2023-03-13T04:54:29.087Z,54
2023-03-13T04:56:59.420Z,56
2023-03-13T04:59:30.058Z,59
2023-03-13T05:02:00.880Z,56
2023-03-13T05:04:31.699Z,54
2023-03-13T05:07:02.768Z,55
2023-03-13T05:09:33.178Z,60
2023-03-13T05:12:03.740Z,52
2023-03-13T05:14:34.538Z,56
2023-03-13T05:17:05.332Z,56
2023-03-13T05:19:35.972Z,59
2023-03-13T05:22:06.732Z,68
2023-03-13T05:24:38.348Z,72
2023-03-13T05:27:07.792Z,96
2023-03-13T05:29:38.555Z,76
2023-03-13T05:32:09.371Z,68
2023-03-13T05:34:40.291Z,58
2023-03-13T05:37:10.893Z,61
2023-03-13T05:39:41.198Z,64
2023-03-13T05:42:11.473Z,64
2023-03-13T05:44:42.608Z,66
2023-03-13T05:47:12.950Z,68
2023-03-13T05:49:43.694Z,77
2023-03-13T05:52:14.571Z,69
2023-03-13T05:54:44.941Z,57
2023-03-13T05:57:15.511Z,60
2023-03-13T05:59:46.131Z,64
2023-03-13T06:02:18.032Z,63
2023-03-13T06:04:49.060Z,70
2023-03-13T06:07:19.526Z,68
2023-03-13T06:09:50.757Z,64
2023-03-13T06:12:20.905Z,56
2023-03-13T06:14:51.467Z,60
2023-03-13T06:17:22.118Z,63
2023-03-13T06:19:52.751Z,58
2023-03-13T06:22:23.239Z,60
2023-03-13T06:24:54.218Z,61
2023-03-13T06:27:24.743Z,64
2023-03-13T06:29:55.338Z,60
2023-03-13T06:32:26.399Z,56
2023-03-13T06:34:57.223Z,64
2023-03-13T06:37:27.925Z,64
2023-03-13T06:39:58.466Z,58
2023-03-13T06:42:29.932Z,58
2023-03-13T06:45:00.481Z,52
2023-03-13T06:47:31.414Z,56
2023-03-13T06:50:02.105Z,60
2023-03-13T06:52:42.974Z,60
2023-03-13T06:55:03.767Z,60
2023-03-13T06:57:34.496Z,56
2023-03-13T07:00:05.632Z,65
2023-03-13T07:02:35.987Z,60
2023-03-13T07:05:04.689Z,64
2023-03-13T07:07:35.949Z,68
2023-03-13T07:10:05.413Z,68
2023-03-13T07:12:35.948Z,60
2023-03-13T07:15:06.280Z,57
2023-03-13T07:17:36.857Z,64
2023-03-13T07:20:07.651Z,56
2023-03-13T07:22:38.249Z,59
2023-03-13T07:25:08.901Z,60
2023-03-13T07:27:40.673Z,56
2023-03-13T07:30:12.640Z,53
2023-03-13T07:32:43.617Z,48
2023-03-13T07:35:14.268Z,56
2023-03-13T07:37:44.452Z,48
2023-03-13T07:40:15.143Z,48
2023-03-13T07:42:46.743Z,40
2023-03-13T07:45:17.228Z,40
2023-03-13T07:47:47.873Z,48
2023-03-13T07:50:18.799Z,44
2023-03-13T07:52:47.769Z,40
2023-03-13T07:55:17.665Z,40
2023-03-13T07:57:48.246Z,45
2023-03-13T08:00:19.012Z,43
2023-03-13T08:02:49.280Z,32
2023-03-13T08:05:19.669Z,41
2023-03-13T08:07:50.291Z,47
2023-03-13T08:10:20.896Z,31
2023-03-13T08:12:51.255Z,44
2023-03-13T08:15:21.832Z,44
2023-03-13T08:17:52.428Z,36
2023-03-13T08:20:23.359Z,48
2023-03-13T08:22:52.474Z,48
2023-03-13T08:25:26.341Z,44
2023-03-13T08:27:56.998Z,24
2023-03-13T08:30:27.287Z,40
2023-03-13T08:32:57.869Z,47
2023-03-13T08:35:28.743Z,33
2023-03-13T08:37:59.290Z,28
2023-03-13T08:40:29.819Z,21
2023-03-13T08:43:00.292Z,34
2023-03-13T08:45:34.837Z,36
2023-03-13T08:48:05.387Z,38
2023-03-13T08:50:35.650Z,33
2023-03-13T08:53:09.381Z,30
2023-03-13T08:55:40.220Z,34
2023-03-13T08:58:15.165Z,23
2023-03-13T09:00:46.004Z,21
2023-03-13T09:03:17.194Z,24
2023-03-13T09:05:55.547Z,32
2023-03-13T09:08:16.150Z,29
2023-03-13T09:10:46.918Z,34
2023-03-13T09:13:17.175Z,47
2023-03-13T09:15:52.329Z,24
2023-03-13T09:18:27.236Z,34
2023-03-13T09:21:00.420Z,29
2023-03-13T09:23:31.361Z,38
2023-03-13T09:26:14.373Z,23
2023-03-13T09:28:45.130Z,25
2023-03-13T09:31:18.047Z,17
2023-03-13T09:33:52.800Z,15
2023-03-13T09:36:24.173Z,16
2023-03-13T09:38:57.485Z,32
2023-03-13T09:41:33.324Z,12
2023-03-13T09:44:10.406Z,16
2023-03-13T09:46:42.700Z,15
2023-03-13T09:49:13.443Z,12
2023-03-13T09:51:44.288Z,9
2023-03-13T09:54:15.970Z,11
2023-03-13T09:56:47.170Z,12
2023-03-13T09:59:21.138Z,8
2023-03-13T10:01:53.376Z,12
2023-03-13T10:04:28.268Z,8
2023-03-13T10:07:01.503Z,8
2023-03-13T10:09:32.443Z,8
2023-03-13T10:12:03.490Z,6
2023-03-13T10:14:34.542Z,8
2023-03-13T10:17:05.067Z,4
2023-03-13T10:19:41.873Z,4
2023-03-13T10:22:18.851Z,12
2023-03-13T10:24:59.668Z,5
2023-03-13T10:27:30.976Z,16
2023-03-13T10:30:09.239Z,16
2023-03-13T10:32:40.098Z,12
2023-03-13T10:35:19.614Z,8
2023-03-13T10:40:39.944Z,9
2023-03-13T10:43:12.291Z,12
2023-03-13T10:45:42.425Z,8
2023-03-13T10:48:15.678Z,32
2023-03-13T10:50:47.809Z,11
2023-03-13T10:53:19.912Z,12
2023-03-13T10:55:52.062Z,12
2023-03-13T10:58:23.749Z,8
2023-03-13T11:00:59.645Z,12
2023-03-13T11:03:28.498Z,15
2023-03-13T11:06:01.780Z,20
2023-03-13T11:08:32.287Z,12
2023-03-13T11:11:02.658Z,8
2023-03-13T11:13:37.913Z,9
2023-03-13T11:16:07.773Z,12
2023-03-13T11:18:42.773Z,8
2023-03-13T11:21:18.718Z,6
2023-03-13T11:23:52.638Z,8
2023-03-13T11:26:27.389Z,9
2023-03-13T11:28:59.561Z,14
2023-03-13T11:31:34.967Z,12
2023-03-13T11:34:05.604Z,12
2023-03-13T11:36:36.927Z,8
2023-03-13T11:39:08.233Z,11
2023-03-13T11:41:39.736Z,12
2023-03-13T11:44:10.286Z,12
2023-03-13T11:46:40.625Z,12
2023-03-13T11:49:22.577Z,9
2023-03-13T11:52:03.570Z,8
2023-03-13T11:54:42.796Z,8
2023-03-13T11:57:14.885Z,13
2023-03-13T11:59:46.295Z,12
2023-03-13T12:02:24.876Z,12
2023-03-13T12:04:55.276Z,12
2023-03-13T12:07:25.489Z,11
2023-03-13T12:09:55.933Z,11
2023-03-13T12:12:26.385Z,10
2023-03-13T12:15:05.638Z,8
2023-03-13T12:17:36.028Z,8
2023-03-13T12:20:08.124Z,12
2023-03-13T12:22:38.156Z,12
2023-03-13T12:25:08.711Z,13
2023-03-13T12:27:39.305Z,12
2023-03-13T12:30:10.029Z,8
2023-03-13T12:32:41.598Z,8
2023-03-13T12:35:15.720Z,6
2023-03-13T12:37:45.987Z,12
2023-03-13T12:40:16.323Z,4
2023-03-13T12:42:47.041Z,8
2023-03-13T12:45:17.698Z,7
2023-03-13T12:47:48.514Z,20
2023-03-13T12:50:19.327Z,8
2023-03-13T12:52:49.962Z,8
2023-03-13T12:55:22.525Z,13
2023-03-13T12:57:53.093Z,13
2023-03-13T13:00:23.669Z,9
2023-03-13T13:02:54.726Z,8
2023-03-13T13:05:25.076Z,12
2023-03-13T13:07:55.265Z,12
2023-03-13T13:10:25.310Z,20
2023-03-13T13:12:55.597Z,16
2023-03-13T13:15:32.158Z,16
2023-03-13T13:18:02.519Z,12
2023-03-13T13:20:34.184Z,16
2023-03-13T13:23:04.315Z,18
2023-03-13T13:25:34.653Z,24
2023-03-13T13:28:09.061Z,8
2023-03-13T13:30:39.088Z,8
2023-03-13T13:33:18.680Z,8
2023-03-13T13:35:49.393Z,23
2023-03-13T13:38:24.743Z,12
2023-03-13T13:41:01.273Z,8
2023-03-13T13:43:35.372Z,32
2023-03-13T13:46:06.921Z,19
2023-03-13T13:48:45.538Z,8
2023-03-13T13:51:17.387Z,8
2023-03-13T13:53:47.795Z,13
2023-03-13T13:56:18.138Z,9
2023-03-13T13:58:48.955Z,7
2023-03-13T14:01:17.575Z,17
2023-03-13T14:03:47.116Z,11
2023-03-13T14:06:18.943Z,7
2023-03-13T14:11:34.750Z,12
2023-03-13T14:14:07.773Z,14
2023-03-13T14:19:11.436Z,20
2023-03-13T14:21:50.944Z,12
2023-03-13T14:24:31.923Z,8
2023-03-13T14:27:12.888Z,6
2023-03-13T14:32:38.728Z,14
2023-03-13T14:35:14.666Z,12
2023-03-13T14:37:45.554Z,13
2023-03-13T14:40:21.807Z,12
2023-03-13T14:42:52.698Z,12
2023-03-13T14:45:30.516Z,12
2023-03-13T14:48:08.231Z,12
2023-03-13T14:50:45.262Z,24
2023-03-13T14:53:15.570Z,13
2023-03-13T14:55:45.850Z,23
2023-03-13T14:58:16.735Z,12
2023-03-13T15:00:47.280Z,9
2023-03-13T15:03:17.879Z,12
2023-03-13T15:05:49.607Z,9
2023-03-13T15:08:20.336Z,19
2023-03-13T15:10:51.707Z,32
2023-03-13T15:13:25.243Z,16
2023-03-13T15:15:55.324Z,12
2023-03-13T15:18:28.848Z,20
2023-03-13T15:23:44.106Z,16
2023-03-13T15:26:14.488Z,21
2023-03-13T15:28:44.585Z,20
2023-03-13T15:31:14.823Z,20
2023-03-13T15:33:45.696Z,16
2023-03-13T15:36:17.876Z,20
2023-03-13T15:38:51.585Z,16
2023-03-13T15:41:22.102Z,19
2023-03-13T15:43:52.861Z,16
2023-03-13T15:46:24.275Z,16
2023-03-13T15:48:54.846Z,13
2023-03-13T15:51:26.778Z,20
2023-03-13T15:53:57.005Z,19
2023-03-13T15:56:27.437Z,47
2023-03-13T15:58:57.498Z,36
2023-03-13T16:01:28.813Z,24
2023-03-13T16:04:02.388Z,29
2023-03-13T16:06:36.385Z,28
2023-03-13T16:09:06.668Z,27
2023-03-13T16:11:40.126Z,29
2023-03-13T16:14:10.753Z,28
2023-03-13T16:16:48.665Z,32
2023-03-13T16:19:21.078Z,32
2023-03-13T16:21:51.568Z,32
2023-03-13T16:24:21.762Z,24
2023-03-13T16:26:52.074Z,24
2023-03-13T16:29:25.750Z,25
2023-03-13T16:31:58.404Z,32
2023-03-13T16:34:30.521Z,32
2023-03-13T16:37:00.734Z,39
2023-03-13T16:39:31.625Z,33
2023-03-13T16:42:03.127Z,36
2023-03-13T16:44:33.901Z,41
2023-03-13T16:47:06.139Z,48
2023-03-13T16:49:34.977Z,48
2023-03-13T16:52:05.315Z,44
2023-03-13T16:54:35.604Z,39
2023-03-13T16:57:06.017Z,40
2023-03-13T16:59:38.715Z,38
2023-03-13T17:02:12.873Z,45
2023-03-13T17:04:44.675Z,35
2023-03-13T17:07:13.487Z,37
2023-03-13T17:09:43.923Z,33
2023-03-13T17:12:14.171Z,34
2023-03-13T17:14:47.986Z,40
2023-03-13T17:17:19.132Z,40
2023-03-13T17:19:49.804Z,40
2023-03-13T17:22:20.318Z,33
2023-03-13T17:24:50.749Z,33
2023-03-13T17:27:21.428Z,33
2023-03-13T17:29:51.886Z,31
2023-03-13T17:32:26.664Z,33
2023-03-13T17:34:59.803Z,36
2023-03-13T17:37:32.900Z,36
2023-03-13T17:40:06.904Z,34
2023-03-13T17:42:40.248Z,39
2023-03-13T17:45:11.292Z,36
2023-03-13T17:47:43.754Z,36
2023-03-13T17:50:15.477Z,32
2023-03-13T17:52:50.365Z,34
2023-03-13T17:55:22.939Z,40
2023-03-13T17:57:59.725Z,39
2023-03-13T18:00:32.941Z,42
2023-03-13T18:03:03.391Z,44
2023-03-13T18:05:35.464Z,40
2023-03-13T18:08:06.307Z,44
2023-03-13T18:10:36.195Z,35
2023-03-13T18:13:06.521Z,32
2023-03-13T18:15:41.142Z,34
2023-03-13T18:18:15.117Z,36
2023-03-13T18:20:45.167Z,36
2023-03-13T18:23:15.582Z,42
2023-03-13T18:25:46.001Z,40
2023-03-13T18:28:16.287Z,32
2023-03-13T18:30:49.080Z,39
2023-03-13T18:33:19.782Z,33
2023-03-13T18:35:53.294Z,36
2023-03-13T18:38:23.116Z,28
2023-03-13T18:40:53.512Z,36
2023-03-13T18:43:23.734Z,32
2023-03-13T18:45:55.269Z,32
2023-03-13T18:48:26.064Z,31
2023-03-13T18:50:56.978Z,28
2023-03-13T18:53:27.256Z,24
2023-03-13T18:55:57.941Z,22
2023-03-13T18:58:30.130Z,20
2023-03-13T19:01:00.104Z,28
2023-03-13T19:03:30.089Z,28
2023-03-13T19:06:02.441Z,30
2023-03-13T19:08:32.663Z,24
2023-03-13T19:11:02.781Z,29
2023-03-13T19:13:32.950Z,29
2023-03-13T19:16:03.091Z,32
2023-03-13T19:18:33.600Z,32
2023-03-13T19:21:07.695Z,40
2023-03-13T19:23:41.755Z,32
2023-03-13T19:26:11.724Z,32
2023-03-13T19:28:42.068Z,28
2023-03-13T19:31:12.553Z,32
2023-03-13T19:33:42.975Z,28
2023-03-13T19:36:12.922Z,32
2023-03-13T19:38:43.204Z,30
2023-03-13T19:41:16.705Z,28
2023-03-13T19:43:47.854Z,24
2023-03-13T19:46:18.022Z,31
2023-03-13T19:48:53.392Z,32
2023-03-13T19:51:23.694Z,28
2023-03-13T19:53:54.976Z,24
2023-03-13T19:56:26.188Z,32
2023-03-13T19:58:56.724Z,25
2023-03-13T20:01:27.802Z,26
2023-03-13T20:03:58.205Z,33
2023-03-13T20:06:31.283Z,27
2023-03-13T20:09:01.916Z,28
2023-03-13T20:11:32.637Z,30
2023-03-13T20:14:02.982Z,29
2023-03-13T20:16:37.087Z,35
2023-03-13T20:19:07.488Z,44
2023-03-13T20:21:37.560Z,29
2023-03-13T20:24:07.990Z,33
2023-03-13T20:26:38.882Z,44
2023-03-13T20:29:09.392Z,51
2023-03-13T20:31:39.676Z,45
2023-03-13T20:34:10.787Z,28
2023-03-13T20:36:41.212Z,39
2023-03-13T20:39:11.552Z,39
2023-03-13T20:41:42.886Z,30
2023-03-13T20:44:12.994Z,29
2023-03-13T20:46:43.571Z,32
2023-03-13T20:49:14.304Z,28
2023-03-13T20:51:44.667Z,28
2023-03-13T20:54:14.990Z,28
2023-03-13T20:56:45.533Z,32
2023-03-13T20:59:16.895Z,24
2023-03-13T21:01:47.309Z,26
2023-03-13T21:04:17.449Z,24
2023-03-13T21:06:47.934Z,29
2023-03-13T21:09:18.195Z,24
2023-03-13T21:11:48.521Z,36
2023-03-13T21:14:19.008Z,28
2023-03-13T21:16:49.839Z,22
2023-03-13T21:19:20.203Z,21
2023-03-13T21:21:50.857Z,36
2023-03-13T21:24:21.348Z,40
2023-03-13T21:26:51.929Z,47
2023-03-13T21:29:22.416Z,40
2023-03-13T21:31:52.789Z,34
2023-03-13T21:34:23.326Z,23
2023-03-13T21:36:53.804Z,24
2023-03-13T21:39:24.150Z,24
2023-03-13T21:41:54.416Z,29
2023-03-13T21:44:26.456Z,16
2023-03-13T21:46:55.101Z,20
2023-03-13T21:49:25.500Z,28
2023-03-13T21:51:55.792Z,26
2023-03-13T21:54:26.241Z,20
2023-03-13T21:56:56.834Z,24
2023-03-13T21:59:27.055Z,18
2023-03-13T22:01:57.602Z,19
2023-03-13T22:04:28.417Z,17
2023-03-13T22:06:58.493Z,18
2023-03-13T22:09:27.396Z,16
2023-03-13T22:11:58.094Z,17
2023-03-13T22:14:28.190Z,16
2023-03-13T22:16:58.655Z,16
2023-03-13T22:19:28.980Z,16
2023-03-13T22:21:59.836Z,17
2023-03-13T22:24:30.220Z,19
2023-03-13T22:27:00.577Z,19
2023-03-13T22:29:32.937Z,22
2023-03-13T22:32:03.301Z,20
2023-03-13T22:34:33.931Z,20
2023-03-13T22:37:04.566Z,20
2023-03-13T22:39:35.567Z,21
2023-03-13T22:42:04.659Z,20
2023-03-13T22:44:34.999Z,16
2023-03-13T22:47:05.883Z,20
2023-03-13T22:49:36.355Z,20
2023-03-13T22:52:06.493Z,13
2023-03-13T22:54:37.474Z,16
2023-03-13T22:57:08.496Z,16
2023-03-13T22:59:38.633Z,16
2023-03-13T23:02:08.772Z,16
2023-03-13T23:04:39.583Z,15
2023-03-13T23:07:09.887Z,16
2023-03-13T23:09:40.981Z,19
2023-03-13T23:12:10.981Z,16
2023-03-13T23:14:41.393Z,15
2023-03-13T23:17:12.242Z,18
2023-03-13T23:19:43.213Z,12
2023-03-13T23:22:14.084Z,12
2023-03-13T23:24:43.302Z,16
2023-03-13T23:27:17.649Z,20
2023-03-13T23:29:48.452Z,16
2023-03-13T23:32:19.305Z,16
2023-03-13T23:34:49.847Z,20
2023-03-13T23:37:21.153Z,16
2023-03-13T23:39:51.743Z,22
2023-03-13T23:42:22.475Z,16
2023-03-13T23:44:53.724Z,19
2023-03-13T23:47:24.742Z,16
2023-03-13T23:49:56.123Z,16
2023-03-13T23:52:27.000Z,18
2023-03-13T23:54:58.701Z,20
2023-03-13T23:57:30.432Z,16
